Chesapeake, VA

8:25 AM EDT on October 01, 2014 (GMT -0400)
Norfolk Naval Station / Chambers Field | Change Station
CLOSE
Current Station
Airport
Location: Norfolk NAS,
Elevation: 16 ft
Nearby Weather Stations
Active Advisory: Special Statement Active Notice: Public Information Statement

Elev 16 ft 36.94 °N, 76.29 °W | Updated 26 minutes ago

Partly Cloudy
Partly Cloudy
70 °F
Feels Like 70 °F
N
13
Wind Variable Wind from NNE

Today
High -- | Low -- °F
--% Chance of Precip.
Yesterday
High -- | Low -- °F
Precip. -- in
7:00 AM 6:48 PM
Waxing Crescent, 47% visible
Pressure 29.97 in
Visibility 10.0 miles
Clouds Few 1400 ft
Dew Point 64 °F
Humidity 81%
Rainfall 0.01 in
Snow Depth Not available.
UV 0 out of 12
Pollen 3.10 out of 12
Ozone Good
PM2.5 Good
Flu Activity Not available.
METAR KNGU 011159Z 02011KT 10SM FEW014 21/18 A2997 RMK AO2 SLP149 T02110178 10211 20200 53014 $

More Conditions Fewer Conditions

Pressure 29.97 in
Visibility 10.0 miles
Clouds Few 1400 ft
Dew Point 64 °F
Humidity 81%
Rainfall 0.01 in
Snow Depth Not available.
UV 0 out of 12
Pollen 3.10 out of 12
Ozone Good
PM2.5 Good
Flu Activity Not available.
METAR KNGU 011159Z 02011KT 10SM FEW014 21/18 A2997 RMK AO2 SLP149 T02110178 10211 20200 53014 $

More Conditions Fewer Conditions

10-Day Weather Forecast

Almanac

Astronomy

Oct. 01, 2014 Rise Set
Actual Time 7:00 AM EDT 6:48 PM EDT
Civil Twilight 6:34 AM EDT 7:14 PM EDT
Nautical Twilight 6:04 AM EDT 7:44 PM EDT
Astronomical Twilight 5:34 AM EDT 8:14 PM EDT
Moon 1:52 PM EDT No Moon Set
Length of Visible Light 12h 39m
Length of Day
11h 48m
Tomorrow will be 2m 20s shorter.
Waxing Crescent, 47% of the Moon is Illuminated
Today
Waxing Crescent
Oct 1
First Quarter
Oct 8
Full
Oct 15
Last Quarter
Oct 23
New

Today's Extremes

State Highs State Lows

Community

WunderPhotos

Upload Photos

1,757,916 photos uploaded!

Nearby

Air Quality

  Air Quality AQ Index Pollutant
Yesterday Good
OZONE
Yesterday Good
PM2.5
Current Good
PM2.5
Current Good
OZONE
Wednesday Good
PM2.5

Snow Depth

Station Depth Elevation
No new snow has been reported.

Earthquake Activity

City Distance Mag. Time & Date
No recent earthquake activity has been reported nearby.
Minimum magnitude displayed is 2.5.

Coastal Water Temperatures

Place Temperature
Chesapeake Bay Bridge Tunnel, VA 72.0 °F
Kiptopeke, VA 75.9 °F
Money Point, VA 73.9 °F
Sewells Point, VA 72.0 °F

Nearby Weather Stations